4AL5 weather

J5 Mike Airport
Woodville, Alabama, United States

Public forecast

Using degrees Fahrenheit for public forecast. Weather courtesy of forecast.io.

Closest aviation weather report (METAR) to J5 Mike Airport

Closest report is Scottsboro Municipal Word Field, 10.8 nm (19.9 km) E. Retrieved 2019/10/19 15:35 UTC (17 minutes ago):

K4A6 191535Z AUTO 10005G11KT 10SM OVC024 17/14 A2993 RMK AO2

Closest aviation forecast (TAF) to J5 Mike Airport

Closest forecast is Huntsville International Carl T Jones Field, 27.4 nm (50.7 km) W. Retrieved 2019/10/19 12:22 UTC (4 hours ago):

TAF KHSV 191120Z 1912/2012 12009KT P6SM OVC050 FM191500 11010G20KT P6SM VCSH OVC025 FM191900 11007KT P6SM VCSH OVC015 FM200000 05003KT P6SM OVC007 FM200500 15002KT 4SM BR OVC008